Date,TemperatureHighF,TemperatureAvgF,TemperatureLowF,DewpointHighF,DewpointAvgF,DewpointLowF,HumidityHigh,HumidityAvg,HumidityLow,PressureMaxIn,PressureMinIn,WindSpeedMaxMPH,WindSpeedAvgMPH,GustSpeedMaxMPH,PrecipitationSumIn
2013-1-1,50,47,43,50,45,35,98,93,69,30.12,29.96,6,0,6,1.03
2013-1-2,47,41,39,46,40,37,100,96,93,30.12,30.00,8,0,8,0.01
2013-1-3,44,36,27,35,32,25,94,85,57,30.37,30.16,1,0,7,0.00
2013-1-4,48,33,24,30,26,22,95,79,45,30.43,30.34,2,0,9,0.00
2013-1-5,49,40,25,38,30,23,93,72,47,30.40,30.24,7,0,7,0.03
2013-1-6,48,40,32,41,37,30,97,89,67,30.31,30.17,9,0,9,0.04
2013-1-7,53,36,26,37,30,24,96,81,49,30.40,30.29,8,0,8,0.00
2013-1-8,57,43,28,46,37,26,96,82,61,30.40,30.28,9,0,9,0.01
2013-1-9,55,52,50,54,50,46,97,93,83,30.44,30.31,6,0,6,0.08
2013-1-10,51,50,50,50,49,49,97,96,96,30.42,30.38,3,0,3,0.01
2013-1-12,71,67,62,66,63,59,99,89,79,30.15,30.02,9,0,9,0.09
2013-1-13,69,64,61,63,61,58,98,90,80,30.07,29.96,14,1,14,1.39
2013-1-14,61,44,39,61,44,38,99,97,94,30.26,30.04,9,0,9,2.05
2013-1-15,43,42,40,43,41,39,99,98,97,30.16,29.98,6,0,6,1.24
2013-1-16,50,46,43,50,45,42,99,98,96,30.07,29.93,7,0,7,0.21
2013-1-17,43,39,31,43,38,30,98,95,87,30.34,29.71,19,2,19,0.55
2013-1-18,50,36,27,37,31,26,98,84,53,30.54,30.34,7,0,7,0.01
2013-1-19,55,38,26,36,31,25,98,78,43,30.44,30.22,10,1,10,0.00
2013-1-20,60,40,28,42,34,27,98,82,46,30.23,30.12,6,0,6,0.01
2013-1-21,32,28,26,30,27,25,96,95,94,30.15,30.11,0,0,0,0.00
2013-1-22,39,30,24,23,16,10,87,56,36,30.37,30.22,2,0,9,0.00
2013-1-23,51,37,30,33,22,13,91,57,43,30.38,30.17,3,0,11,0.00
2013-1-24,48,38,27,42,25,12,90,61,34,30.38,30.17,3,1,12,0.00
2013-1-25,36,33,29,35,25,14,95,74,43,30.36,30.12,5,2,15,0.08
2013-1-26,50,40,33,37,34,31,100,81,54,30.30,30.18,5,0,8,0.00
2013-1-27,48,48,46,37,36,34,64,63,61,30.37,30.34,3,2,13,0.00
2013-1-28,54,49,45,48,40,34,83,73,63,30.37,30.26,5,2,12,0.00
2013-1-29,68,56,45,61,53,44,97,90,77,30.23,29.97,2,0,9,0.00
2013-2-1,44,33,25,34,20,14,77,60,39,30.42,30.09,6,1,12,0.00
2013-2-2,35,28,20,34,24,17,95,87,62,30.37,30.12,2,0,9,0.04
2013-2-3,54,38,25,41,30,24,98,78,40,30.15,30.02,4,1,14,0.03
2013-2-4,48,37,25,34,29,23,95,75,49,30.16,30.00,2,0,7,0.00
2013-2-5,64,48,37,48,40,33,95,76,41,30.06,29.95,3,0,9,0.03
2013-2-6,65,45,30,47,36,29,98,76,38,30.20,30.06,2,0,7,0.00
2013-2-7,52,45,38,48,42,35,97,89,71,30.14,29.95,4,0,4,0.08
2013-2-8,57,46,37,50,42,32,98,87,56,30.26,29.92,3,0,11,0.07
2013-2-9,58,44,32,38,33,28,89,68,39,30.33,30.21,8,1,10,0.00
2013-2-10,56,50,38,51,40,30,97,72,37,30.26,30.01,18,2,18,0.74
2013-2-11,57,51,41,56,49,40,99,93,71,30.15,30.01,12,1,12,0.23
2013-2-12,51,45,40,42,40,34,97,85,54,30.14,29.85,4,0,4,0.12
2013-2-13,48,44,40,47,42,37,98,92,79,30.01,29.71,11,1,12,0.03
2013-2-14,57,44,33,41,36,32,93,77,50,30.10,30.00,8,0,8,0.00
2013-2-15,61,45,30,44,37,29,98,78,49,30.11,30.00,14,1,14,0.00
2013-3-15,75,63,47,49,46,39,83,56,39,30.16,29.96,13,2,13,0.00
2013-3-16,78,62,48,53,48,44,89,61,37,29.98,29.85,15,2,15,0.00
2013-3-17,71,58,45,57,50,43,96,76,53,29.99,29.88,12,1,13,0.00
2013-3-18,62,54,48,57,52,46,98,93,81,29.93,29.78,8,1,16,0.70
2013-3-19,64,51,35,52,36,23,98,63,29,30.14,29.90,14,1,14,0.00
2013-3-20,60,45,32,33,27,20,86,53,25,30.16,29.93,14,1,14,0.00
2013-3-21,38,33,28,31,25,16,81,72,60,30.00,29.99,11,0,11,0.00
2013-3-25,42,37,33,33,27,25,79,67,61,30.09,29.71,5,2,15,0.00
2013-3-26,41,36,31,30,28,26,89,75,60,30.31,30.08,3,1,11,0.00
2013-3-27,55,39,26,32,28,24,95,68,37,30.37,30.25,3,1,11,0.00
2013-3-28,62,43,27,37,31,25,95,68,36,30.37,30.24,3,1,11,0.00
2013-3-29,58,44,32,42,36,30,100,75,43,30.34,30.20,2,0,6,0.00
2013-3-30,68,53,44,55,47,41,97,83,50,30.23,30.01,3,0,10,0.38
2013-3-31,64,59,54,60,57,53,99,92,75,30.01,29.87,10,1,10,0.39
2013-4-1,70,56,41,56,47,40,100,75,39,30.08,29.90,8,1,14,0.01
2013-4-2,59,49,39,41,32,26,89,55,31,30.24,30.08,9,1,9,0.00
2013-4-3,59,50,41,41,30,25,77,47,34,30.23,30.13,9,1,9,0.00
2013-4-4,48,45,43,44,43,42,97,94,78,30.17,29.98,6,0,6,0.77
2013-4-5,67,52,42,47,43,39,97,75,38,30.11,29.98,13,1,13,0.00
2013-4-6,72,55,37,47,42,36,94,66,37,30.20,30.09,12,1,12,0.00
2013-4-11,65,63,62,63,62,61,98,96,90,29.74,29.61,15,1,18,1.14
2013-4-12,68,59,46,63,49,40,100,73,38,29.98,29.64,11,1,15,0.10
2013-4-13,76,56,40,49,44,38,100,68,29,30.09,29.97,8,0,8,0.00
2013-4-14,63,53,42,55,48,41,96,84,55,30.05,29.94,13,1,13,0.02
2013-4-15,77,65,55,62,58,53,98,79,57,30.12,29.93,11,1,11,0.00
2013-4-16,80,70,62,67,63,59,94,80,65,30.24,30.11,10,1,10,0.00
2013-4-17,84,71,63,71,65,62,96,82,57,30.22,30.07,13,1,13,0.41
2013-4-18,81,70,60,65,61,59,98,76,50,30.07,29.84,5,1,16,0.12
2013-4-19,73,56,41,66,51,39,96,84,64,30.11,29.72,12,1,16,0.09
2013-4-20,64,49,33,41,36,31,95,66,33,30.28,30.11,11,0,11,0.03
2013-4-21,71,55,39,49,41,35,93,63,35,30.36,30.22,8,0,8,0.02
2013-4-22,73,56,40,50,45,38,98,71,38,30.33,30.14,9,0,9,0.01
2013-4-23,75,59,42,54,48,40,95,69,45,30.23,30.05,10,1,10,0.01
2013-4-24,72,60,48,63,55,44,95,84,68,30.23,30.04,13,1,13,0.01
2013-4-25,54,45,40,45,40,37,91,85,65,30.33,30.22,8,0,8,0.00